Time;durP1;ratioP1;P1;durP2;ratioP2;P2;SDS_P1;SDS_P2;PMS_P1;PMS_P2;Temp;Humidity;BMP_temperature;BMP_pressure;BME280_temperature;BME280_humidity;BME280_pressure;Samples;Min_cycle;Max_cycle;Signal;HPM_P1;HPM_P2
2021/11/02 00:00:33;;;;;;;;;;;;;;;21.51;33.17;97535.19;4892626;29;1064;-81
2021/11/02 00:02:59;;;;;;;;;;;;;;;21.62;32.79;97541.28;4891658;29;1085;-80
2021/11/02 00:05:25;;;;;;;;;;;;;;;21.70;32.71;97536.94;4892879;29;1030;-81
2021/11/02 00:07:50;;;;;;;;;;;;;;;21.59;32.75;97536.53;4891909;29;1884;-81
2021/11/02 00:10:16;;;;;;;;;;;;;;;21.64;32.80;97533.13;4892745;29;895;-80
2021/11/02 00:12:41;;;;;;;;;;;;;;;21.66;32.68;97524.97;4892667;29;978;-81
2021/11/02 00:15:07;;;;;;;;;;;;;;;21.56;32.46;97526.13;4872746;29;977;-81
2021/11/02 00:17:35;;;;;;;;;;;;;;;21.63;32.71;97525.88;4904797;29;868;-81
2021/11/02 00:20:03;;;;;;;;;;;;;;;21.55;32.69;97519.69;4891811;29;1002;-82
2021/11/02 00:22:29;;;;;;;;;;;;;;;21.42;32.87;97518.13;4893445;29;954;-81
2021/11/02 00:27:21;;;;;;;;;;;;;;;21.69;32.55;97517.59;4911860;29;1958;-81
2021/11/02 00:29:47;;;;;;;;;;;;;;;21.87;33.76;97517.00;4910405;29;1177;-81
2021/11/02 00:32:13;;;;;;;;;;;;;;;22.07;33.81;97514.63;4868013;29;954;-81
2021/11/02 00:34:39;;;;;;;;;;;;;;;21.96;33.60;97508.56;4888258;29;899;-82
2021/11/02 00:37:05;;;;;;;;;;;;;;;21.65;33.45;97502.75;4931166;29;868;-82
2021/11/02 00:39:30;;;;;;;;;;;;;;;21.66;33.50;97502.34;4928966;29;1104;-82
2021/11/02 00:41:56;;;;;;;;;;;;;;;21.65;33.07;97499.94;4930341;29;876;-82
2021/11/02 00:44:22;;;;;;;;;;;;;;;21.55;33.42;97494.22;4929128;29;872;-81
2021/11/02 00:46:51;;;;;;;;;;;;;;;21.53;33.46;97498.72;4878276;29;1884;-82
2021/11/02 00:49:21;;;;;;;;;;;;;;;21.70;33.08;97502.97;4872601;29;907;-82
2021/11/02 00:51:48;;;;;;;;;;;;;;;21.60;33.18;97498.47;4922496;29;835;-82
2021/11/02 00:54:13;;;;;;;;;;;;;;;21.62;33.26;97496.00;4956790;29;892;-81
2021/11/02 00:56:39;;;;;;;;;;;;;;;21.59;33.23;97485.56;4968641;28;1206;-82
2021/11/02 00:59:05;;;;;;;;;;;;;;;21.56;33.30;97486.50;4982874;28;1214;-82
2021/11/02 01:01:30;;;;;;;;;;;;;;;21.60;33.12;97478.66;5008499;28;787;-82
2021/11/02 01:03:56;;;;;;;;;;;;;;;21.54;33.10;97478.44;5006064;28;940;-82
2021/11/02 01:06:22;;;;;;;;;;;;;;;21.45;33.21;97469.88;4990988;28;1898;-82
2021/11/02 01:08:47;;;;;;;;;;;;;;;21.60;32.98;97467.34;5006083;28;817;-82
2021/11/02 01:11:13;;;;;;;;;;;;;;;21.49;33.33;97470.53;5007648;28;887;-81
2021/11/02 01:13:38;;;;;;;;;;;;;;;21.45;33.24;97469.06;5005218;28;896;-81
2021/11/02 01:16:04;;;;;;;;;;;;;;;21.52;33.39;97454.69;5010747;28;1005;-82
2021/11/02 01:18:30;;;;;;;;;;;;;;;21.52;33.30;97454.69;5008379;28;1053;-82
2021/11/02 01:20:57;;;;;;;;;;;;;;;21.46;33.28;97453.69;4972384;28;878;-82
2021/11/02 01:23:23;;;;;;;;;;;;;;;21.61;32.91;97457.63;4969376;29;985;-82
2021/11/02 01:25:48;;;;;;;;;;;;;;;21.58;32.96;97456.47;4972823;29;925;-83
2021/11/02 01:28:14;;;;;;;;;;;;;;;21.63;33.03;97451.47;4986054;28;1903;-82
2021/11/02 01:30:42;;;;;;;;;;;;;;;21.59;33.11;97454.44;4968725;28;1125;-82
2021/11/02 01:33:12;;;;;;;;;;;;;;;21.58;32.80;97455.69;4966751;28;1215;-82
2021/11/02 01:35:40;;;;;;;;;;;;;;;21.62;32.73;97449.91;4953039;29;1587;-83
2021/11/02 01:38:05;;;;;;;;;;;;;;;21.70;32.60;97452.00;4989133;28;1116;-83
2021/11/02 01:40:31;;;;;;;;;;;;;;;21.56;32.60;97446.88;4990658;28;1122;-82
2021/11/02 01:42:57;;;;;;;;;;;;;;;21.57;32.62;97443.56;4974106;28;943;-82
2021/11/02 01:45:27;;;;;;;;;;;;;;;21.79;33.44;97443.59;4958135;28;1474;-82
2021/11/02 01:47:55;;;;;;;;;;;;;;;21.96;33.89;97446.22;4989287;28;1958;-82
2021/11/02 01:50:28;;;;;;;;;;;;;;;22.24;33.49;97444.44;4975384;28;1151;-82
2021/11/02 01:52:54;;;;;;;;;;;;;;;21.89;33.69;97432.34;4951197;29;1137;-82
2021/11/02 01:55:19;;;;;;;;;;;;;;;21.91;33.42;97436.28;4951370;29;1142;-82
2021/11/02 01:57:46;;;;;;;;;;;;;;;21.75;33.15;97431.59;4956853;29;1067;-82
2021/11/02 02:00:19;;;;;;;;;;;;;;;21.63;33.41;97428.84;4971280;29;1432;-82
2021/11/02 02:03:05;;;;;;;;;;;;;;;21.62;33.06;97422.38;4970684;29;1296;-82
2021/11/02 02:06:10;;;;;;;;;;;;;;;21.59;33.01;97423.28;4990508;28;1107;-82
2021/11/02 02:08:40;;;;;;;;;;;;;;;21.62;33.20;97416.72;4915714;29;1273;-82
2021/11/02 02:11:18;;;;;;;;;;;;;;;21.56;33.37;97424.22;4952475;29;1128;-82
2021/11/02 02:13:53;;;;;;;;;;;;;;;21.56;33.51;97412.91;4933678;29;1172;-82
2021/11/02 02:16:26;;;;;;;;;;;;;;;21.52;33.59;97412.22;4936542;29;1262;-82
2021/11/02 02:19:18;;;;;;;;;;;;;;;21.46;33.73;97420.53;4935716;29;1231;-82
2021/11/02 02:21:46;;;;;;;;;;;;;;;21.57;33.46;97414.47;4951486;29;962;-82
2021/11/02 02:24:15;;;;;;;;;;;;;;;21.56;33.22;97425.00;4950500;29;1125;-82
2021/11/02 02:26:40;;;;;;;;;;;;;;;21.53;33.39;97420.25;4931453;29;1887;-82
2021/11/02 02:29:09;;;;;;;;;;;;;;;21.59;33.27;97424.06;4931158;29;1094;-82
2021/11/02 02:31:35;;;;;;;;;;;;;;;21.59;33.35;97418.41;4913518;29;1282;-82
2021/11/02 02:34:03;;;;;;;;;;;;;;;21.53;33.25;97419.47;4930658;29;1269;-82
2021/11/02 02:36:33;;;;;;;;;;;;;;;21.60;33.26;97430.53;4912630;29;1301;-82
2021/11/02 02:39:07;;;;;;;;;;;;;;;21.61;33.15;97425.69;4918905;29;1220;-82
2021/11/02 02:41:37;;;;;;;;;;;;;;;21.55;33.28;97425.44;4938677;29;1233;-82
2021/11/02 02:44:03;;;;;;;;;;;;;;;21.64;32.88;97419.88;4950351;28;1509;-82
2021/11/02 02:46:30;;;;;;;;;;;;;;;21.58;32.93;97421.72;4971082;28;1891;-82
2021/11/02 02:48:57;;;;;;;;;;;;;;;21.53;33.21;97425.13;4949763;29;908;-83
2021/11/02 02:51:22;;;;;;;;;;;;;;;21.52;33.21;97417.88;4935809;29;1301;-81
2021/11/02 02:53:50;;;;;;;;;;;;;;;21.55;33.10;97425.44;4933630;29;1181;-81
2021/11/02 02:56:16;;;;;;;;;;;;;;;21.45;33.35;97429.44;4935096;29;1378;-82
2021/11/02 02:58:43;;;;;;;;;;;;;;;21.54;32.94;97426.72;4894217;29;910;-82
2021/11/02 03:01:09;;;;;;;;;;;;;;;21.63;32.98;97426.00;4895710;29;895;-82
2021/11/02 03:03:37;;;;;;;;;;;;;;;21.56;33.08;97424.22;4892447;29;1035;-82
2021/11/02 03:06:03;;;;;;;;;;;;;;;21.43;33.12;97423.47;4878468;29;1965;-82
2021/11/02 03:08:29;;;;;;;;;;;;;;;21.49;33.10;97435.78;4895456;29;1057;-82
2021/11/02 03:10:56;;;;;;;;;;;;;;;21.53;33.07;97431.56;4914322;29;1119;-81
2021/11/02 03:13:21;;;;;;;;;;;;;;;21.66;32.62;97433.56;4892022;29;960;-82
2021/11/02 03:18:34;;;;;;;;;;;;;;;21.59;32.82;97434.63;4843766;29;1449;-82
2021/11/02 03:48:45;;;;;;;;;;;;;;;21.72;33.34;97426.09;4881105;29;1914;-82
2021/11/02 03:56:37;;;;;;;;;;;;;;;21.60;33.08;97419.19;4893557;29;1309;-82
2021/11/02 03:59:39;;;;;;;;;;;;;;;21.65;33.16;97412.94;4892217;29;789;-82
2021/11/02 04:35:09;;;;;;;;;;;;;;;21.78;34.12;97410.88;4910967;29;1235;-82
2021/11/02 06:00:20;;;;;;;;;;;;;;;21.52;33.06;97392.41;4913298;29;1277;-81
2021/11/02 06:08:36;;;;;;;;;;;;;;;21.69;33.18;97387.34;4872417;29;1976;-79
2021/11/02 06:30:10;;;;;;;;;;;;;;;21.60;33.31;97351.25;4867578;29;912;-79
2021/11/02 06:32:39;;;;;;;;;;;;;;;21.53;33.17;97343.81;4925166;28;1243;-79
2021/11/02 06:45:52;;;;;;;;;;;;;;;21.52;32.83;97366.94;5001020;28;900;-79
2021/11/02 06:59:37;;;;;;;;;;;;;;;21.73;32.20;97346.34;4933864;29;932;-79
2021/11/02 07:18:29;;;;;;;;;;;;;;;22.01;34.40;97346.50;4824271;29;1390;-78
2021/11/02 08:48:12;;;;;;;;;;;;;;;22.87;31.39;97236.06;5077583;28;1689;-74
2021/11/02 08:52:09;;;;;;;;;;;;;;;23.31;30.84;97213.06;5098411;27;1362285;-77
2021/11/02 08:54:36;;;;;;;;;;;;;;;23.23;31.24;97220.31;5103006;28;949;-76
2021/11/02 08:59:26;;;;;;;;;;;;;;;23.27;31.02;97218.91;5117451;27;1669;-76
2021/11/02 09:03:17;;;;;;;;;;;;;;;23.65;30.96;97231.78;5090731;27;1384;-74
2021/11/02 09:05:43;;;;;;;;;;;;;;;23.31;30.89;97230.91;5078847;28;1084;-74
2021/11/02 09:10:00;;;;;;;;;;;;;;;23.49;30.54;97217.91;5086814;27;1631;-81
2021/11/02 09:12:32;;;;;;;;;;;;;;;23.45;31.05;97211.59;5071382;28;1573;-78
2021/11/02 09:15:01;;;;;;;;;;;;;;;23.02;31.80;97213.56;5072287;28;813;-81
2021/11/02 09:17:30;;;;;;;;;;;;;;;22.87;31.47;97202.03;5090352;28;915;-78
2021/11/02 09:19:56;;;;;;;;;;;;;;;22.96;31.61;97192.78;4990884;28;1115;-75
2021/11/02 09:22:21;;;;;;;;;;;;;;;23.32;31.01;97178.53;4974332;28;1548;-74
2021/11/02 09:24:47;;;;;;;;;;;;;;;23.21;31.13;97175.41;4969948;28;1441;-78
2021/11/02 09:27:13;;;;;;;;;;;;;;;23.38;31.11;97179.47;4954358;28;1413;-79
2021/11/02 09:29:38;;;;;;;;;;;;;;;23.52;30.36;97165.84;4964496;28;1902;-79
2021/11/02 09:32:04;;;;;;;;;;;;;;;23.40;30.97;97162.72;4973550;28;1445;-76
2021/11/02 09:34:30;;;;;;;;;;;;;;;23.30;31.20;97161.16;4967573;28;1039;-77
2021/11/02 09:36:58;;;;;;;;;;;;;;;23.31;31.06;97167.63;4954652;28;913;-73
2021/11/02 09:39:24;;;;;;;;;;;;;;;23.31;30.89;97157.09;4968651;28;997;-80
2021/11/02 09:41:55;;;;;;;;;;;;;;;23.30;31.30;97149.81;4913955;29;967;-79
2021/11/02 09:44:26;;;;;;;;;;;;;;;22.92;32.09;97146.75;4899043;29;860;-72
2021/11/02 09:47:11;;;;;;;;;;;;;;;23.50;30.70;97151.34;4914288;29;899;-75
2021/11/02 09:49:46;;;;;;;;;;;;;;;23.56;30.60;97135.22;4914211;29;1919;-77
2021/11/02 09:52:17;;;;;;;;;;;;;;;23.74;29.98;97149.38;4932837;29;1019;-77
2021/11/02 09:54:59;;;;;;;;;;;;;;;23.52;30.38;97140.28;4943478;29;910;-74
2021/11/02 09:57:44;;;;;;;;;;;;;;;23.62;30.32;97134.13;4967627;28;1091;-75
2021/11/02 10:00:10;;;;;;;;;;;;;;;23.54;30.14;97137.78;4952198;29;1046;-73
2021/11/02 10:02:55;;;;;;;;;;;;;;;23.23;30.77;97133.13;4958317;28;1023;-77
2021/11/02 10:05:49;;;;;;;;;;;;;;;23.73;29.79;97119.41;5001460;28;968;-79
2021/11/02 10:08:23;;;;;;;;;;;;;;;23.45;30.10;97104.50;4993701;28;1902;-76
2021/11/02 10:11:08;;;;;;;;;;;;;;;23.22;31.39;97103.19;5009977;28;1012;-79
2021/11/02 10:13:36;;;;;;;;;;;;;;;23.42;30.24;97101.88;5052531;28;1984;-77
2021/11/02 10:16:13;;;;;;;;;;;;;;;23.56;30.13;97092.63;5059196;28;1408;-72
2021/11/02 10:18:43;;;;;;;;;;;;;;;23.68;29.64;97105.88;5049208;28;1014;-73
2021/11/02 10:21:18;;;;;;;;;;;;;;;23.59;29.97;97100.19;5056777;28;975;-72
2021/11/02 10:24:01;;;;;;;;;;;;;;;23.75;29.58;97094.16;5048677;28;955;-73
2021/11/02 10:26:33;;;;;;;;;;;;;;;23.79;29.65;97088.31;5036063;28;1151;-71
2021/11/02 10:29:20;;;;;;;;;;;;;;;23.64;30.10;97082.53;5040767;28;1973;-73
2021/11/02 10:32:00;;;;;;;;;;;;;;;23.56;30.18;97086.94;5016206;28;1006;-71
2021/11/02 10:34:31;;;;;;;;;;;;;;;23.58;30.30;97085.22;5027247;28;996;-77
2021/11/02 10:37:32;;;;;;;;;;;;;;;23.34;30.56;97082.31;5016220;28;1565;-78
2021/11/02 10:40:14;;;;;;;;;;;;;;;23.38;30.26;97077.25;4977076;28;1112;-76
2021/11/02 10:43:10;;;;;;;;;;;;;;;23.57;29.85;97071.47;4938472;29;1040;-74
2021/11/02 10:45:38;;;;;;;;;;;;;;;23.57;30.14;97077.16;4938182;29;993;-74
2021/11/02 10:48:04;;;;;;;;;;;;;;;23.50;30.22;97066.94;4937997;29;1976;-74
2021/11/02 10:50:37;;;;;;;;;;;;;;;23.72;29.63;97074.44;4959132;28;1142;-73
2021/11/02 10:53:03;;;;;;;;;;;;;;;24.05;29.16;97065.88;4957239;29;1333;-77
2021/11/02 10:55:52;;;;;;;;;;;;;;;23.92;29.10;97081.09;4957354;28;1005;-79
2021/11/02 10:58:21;;;;;;;;;;;;;;;23.78;29.45;97059.13;4957117;29;988;-72
2021/11/02 11:00:47;;;;;;;;;;;;;;;23.72;29.38;97055.34;4926316;29;1875;-72
2021/11/02 11:03:12;;;;;;;;;;;;;;;23.89;29.08;97041.53;4925507;29;975;-80
2021/11/02 11:05:38;;;;;;;;;;;;;;;24.23;28.70;97042.19;4918310;29;1038;-78
2021/11/02 11:08:03;;;;;;;;;;;;;;;23.93;28.93;97036.41;4912799;29;1980;-72
2021/11/02 11:10:29;;;;;;;;;;;;;;;23.52;29.48;97035.22;4935674;29;1619;-76
2021/11/02 11:12:56;;;;;;;;;;;;;;;23.68;29.58;97037.72;4955739;29;1645;-68
2021/11/02 11:15:24;;;;;;;;;;;;;;;23.58;29.32;97027.66;4955553;29;1018;-75
2021/11/02 11:17:51;;;;;;;;;;;;;;;23.91;28.97;97038.97;4935335;29;1457;-76
2021/11/02 11:20:17;;;;;;;;;;;;;;;23.61;29.56;97032.34;4937880;29;868;-74
2021/11/02 11:22:43;;;;;;;;;;;;;;;23.09;30.28;97034.47;4882179;29;1052;-72
2021/11/02 11:25:20;;;;;;;;;;;;;;;23.06;29.91;97022.06;4862496;29;907;-73
2021/11/02 11:27:51;;;;;;;;;;;;;;;22.87;30.35;97003.47;4878345;29;1989;-73
2021/11/02 11:30:17;;;;;;;;;;;;;;;22.31;31.60;97011.31;4888352;29;1316;-73
2021/11/02 11:32:43;;;;;;;;;;;;;;;22.55;31.17;97013.50;4948913;28;1018;-73
2021/11/02 11:35:09;;;;;;;;;;;;;;;22.96;30.18;97011.22;4975470;28;1135;-73
2021/11/02 11:37:36;;;;;;;;;;;;;;;22.98;30.13;97006.63;4958314;28;1516;-73
2021/11/02 11:40:05;;;;;;;;;;;;;;;22.70;30.75;97017.25;4956021;29;1656;-73
2021/11/02 11:42:30;;;;;;;;;;;;;;;23.34;29.41;97016.25;4940111;29;1017;-73
2021/11/02 11:44:56;;;;;;;;;;;;;;;23.16;30.08;97019.97;4948911;29;999;-73
2021/11/02 11:47:22;;;;;;;;;;;;;;;23.15;29.69;97018.38;4972397;28;848;-74
2021/11/02 11:49:49;;;;;;;;;;;;;;;23.06;29.78;97026.94;4967221;28;1914;-77
2021/11/02 11:52:19;;;;;;;;;;;;;;;23.29;29.69;97017.69;4977501;28;1705;-76
2021/11/02 11:54:45;;;;;;;;;;;;;;;22.81;30.43;97011.06;5003915;28;1401;-76
2021/11/02 11:57:14;;;;;;;;;;;;;;;22.72;30.34;97003.38;4993164;28;1426;-75
2021/11/02 11:59:39;;;;;;;;;;;;;;;22.22;31.40;97016.97;4993940;28;1875;-75
2021/11/02 12:02:09;;;;;;;;;;;;;;;22.92;30.18;97017.06;5011042;28;1663;-75
2021/11/02 12:04:36;;;;;;;;;;;;;;;22.71;30.58;97012.34;5010253;28;1760;-75
2021/11/02 12:07:20;;;;;;;;;;;;;;;22.31;31.44;97019.81;4978859;28;1013;-75
2021/11/02 12:09:46;;;;;;;;;;;;;;;22.34;32.35;97018.09;4980404;28;1935;-71
2021/11/02 12:12:12;;;;;;;;;;;;;;;22.40;30.95;97023.91;4994735;28;1799;-73
2021/11/02 12:14:45;;;;;;;;;;;;;;;22.81;30.29;97026.03;4988729;28;1889;-72
2021/11/02 12:17:13;;;;;;;;;;;;;;;22.99;29.99;97027.25;5028762;28;1091;-72
2021/11/02 12:19:40;;;;;;;;;;;;;;;22.67;30.65;97023.84;5033526;28;787;-72
2021/11/02 12:22:09;;;;;;;;;;;;;;;23.37;29.09;97030.28;5047152;28;898;-81
2021/11/02 12:24:38;;;;;;;;;;;;;;;23.17;28.86;97032.88;5063147;28;1556;-81
2021/11/02 12:27:12;;;;;;;;;;;;;;;22.96;29.15;97025.41;5047585;28;1718;-81
2021/11/02 12:29:37;;;;;;;;;;;;;;;22.82;29.28;97019.09;5047986;28;2000;-81
2021/11/02 12:32:06;;;;;;;;;;;;;;;22.98;28.86;97031.38;5051577;28;976;-83
2021/11/02 12:34:45;;;;;;;;;;;;;;;22.90;28.96;97030.13;5051906;28;909;-81
2021/11/02 12:37:11;;;;;;;;;;;;;;;22.76;29.02;97032.34;5054087;28;818;-81
2021/11/02 12:39:37;;;;;;;;;;;;;;;22.76;29.04;97029.50;5052437;28;965;-81
2021/11/02 12:42:03;;;;;;;;;;;;;;;22.93;28.83;97032.00;5053562;28;933;-82
2021/11/02 12:44:29;;;;;;;;;;;;;;;22.81;28.82;97028.88;5052505;28;905;-81
2021/11/02 12:46:54;;;;;;;;;;;;;;;22.70;29.01;97039.16;5075199;28;873;-82
2021/11/02 12:49:37;;;;;;;;;;;;;;;22.52;29.51;97042.78;5073296;28;1890;-81
2021/11/02 12:52:09;;;;;;;;;;;;;;;22.58;29.18;97035.22;5089762;28;929;-81
2021/11/02 12:54:37;;;;;;;;;;;;;;;22.49;29.25;97043.75;5091005;28;1208;-81
2021/11/02 12:57:03;;;;;;;;;;;;;;;22.65;29.00;97043.41;5093542;28;958;-81
2021/11/02 12:59:30;;;;;;;;;;;;;;;22.84;28.76;97046.97;5091783;28;964;-82
2021/11/02 13:01:59;;;;;;;;;;;;;;;22.63;28.96;97045.91;5076971;28;827;-82
2021/11/02 13:04:24;;;;;;;;;;;;;;;22.46;29.17;97053.19;5052000;28;949;-80
2021/11/02 13:06:50;;;;;;;;;;;;;;;22.51;29.03;97049.72;5053620;28;866;-82
2021/11/02 13:09:22;;;;;;;;;;;;;;;22.59;28.56;97053.81;5032066;28;1887;-82
2021/11/02 13:11:51;;;;;;;;;;;;;;;22.49;28.92;97055.09;5013559;28;848;-82
2021/11/02 13:14:16;;;;;;;;;;;;;;;22.51;28.95;97049.72;5012447;28;876;-81
2021/11/02 13:16:58;;;;;;;;;;;;;;;22.49;28.67;97052.25;5013734;28;1002;-80
2021/11/02 13:19:30;;;;;;;;;;;;;;;22.43;29.05;97054.13;5029057;28;906;-81
2021/11/02 13:21:55;;;;;;;;;;;;;;;22.34;29.10;97052.88;5014288;28;819;-82
2021/11/02 13:24:22;;;;;;;;;;;;;;;22.08;29.14;97057.25;5012434;28;944;-81
2021/11/02 13:26:49;;;;;;;;;;;;;;;22.41;28.67;97062.31;5009449;28;1008;-80
2021/11/02 13:29:15;;;;;;;;;;;;;;;22.49;28.61;97066.44;4993627;28;1886;-81
2021/11/02 13:31:42;;;;;;;;;;;;;;;22.29;28.79;97056.34;5013992;28;1012;-80
2021/11/02 13:34:08;;;;;;;;;;;;;;;22.42;28.61;97052.56;4973982;28;919;-82
2021/11/02 13:36:34;;;;;;;;;;;;;;;22.50;28.46;97051.00;4956125;29;1137;-82
2021/11/02 13:39:00;;;;;;;;;;;;;;;22.52;28.64;97060.56;4955429;29;871;-82
2021/11/02 13:41:25;;;;;;;;;;;;;;;22.30;29.06;97054.31;4995689;28;1013;-81
2021/11/02 13:43:52;;;;;;;;;;;;;;;22.33;29.21;97054.16;5031144;28;935;-80
2021/11/02 13:46:18;;;;;;;;;;;;;;;22.35;29.33;97053.66;5013692;28;970;-81
2021/11/02 13:48:44;;;;;;;;;;;;;;;22.34;29.52;97047.22;5012125;28;1883;-79
2021/11/02 13:51:10;;;;;;;;;;;;;;;22.25;29.90;97050.06;5014162;28;985;-82
2021/11/02 13:53:36;;;;;;;;;;;;;;;22.32;29.48;97046.88;5012375;28;1404;-80
2021/11/02 13:56:02;;;;;;;;;;;;;;;22.23;29.94;97046.91;5016650;28;974;-82
2021/11/02 13:58:28;;;;;;;;;;;;;;;22.34;29.87;97037.94;5014840;28;878;-82
2021/11/02 14:00:54;;;;;;;;;;;;;;;22.33;29.97;97034.31;5037314;28;937;-79
2021/11/02 14:03:21;;;;;;;;;;;;;;;22.42;29.74;97029.88;5034760;28;874;-82
2021/11/02 14:05:46;;;;;;;;;;;;;;;22.44;29.44;97027.38;5037118;28;863;-80
2021/11/02 14:08:12;;;;;;;;;;;;;;;22.35;29.56;97026.13;4995595;28;1915;-81
2021/11/02 14:10:37;;;;;;;;;;;;;;;22.36;29.84;97022.00;5016252;28;985;-80
2021/11/02 14:13:03;;;;;;;;;;;;;;;22.33;29.85;97028.66;4999420;28;1374;-82
2021/11/02 14:15:29;;;;;;;;;;;;;;;22.34;29.83;97010.38;4995962;28;1076;-79
2021/11/02 14:17:57;;;;;;;;;;;;;;;22.19;30.17;97017.94;4995978;28;1005;-81
2021/11/02 14:20:42;;;;;;;;;;;;;;;22.33;29.98;97022.97;4996321;28;852;-80
2021/11/02 14:23:08;;;;;;;;;;;;;;;22.44;29.48;97016.03;4995012;28;937;-81
2021/11/02 14:25:33;;;;;;;;;;;;;;;22.59;29.17;97017.75;4996076;28;878;-81
2021/11/02 14:27:59;;;;;;;;;;;;;;;22.33;29.67;97008.81;4977449;28;1962;-82
2021/11/02 14:30:27;;;;;;;;;;;;;;;22.20;30.16;97011.00;4976892;28;932;-81
2021/11/02 14:32:53;;;;;;;;;;;;;;;22.04;30.29;97006.41;4976539;29;943;-82
2021/11/02 14:35:38;;;;;;;;;;;;;;;22.07;30.08;97013.16;4976705;28;954;-81
2021/11/02 14:38:13;;;;;;;;;;;;;;;22.10;30.14;97015.06;4974858;28;1030;-82
2021/11/02 14:40:38;;;;;;;;;;;;;;;22.03;30.11;97016.19;4961439;28;1386;-81
2021/11/02 14:43:13;;;;;;;;;;;;;;;22.32;30.06;97014.94;4994443;28;978;-81
2021/11/02 14:45:42;;;;;;;;;;;;;;;22.23;29.90;97021.41;5006105;28;914;-80
2021/11/02 14:48:26;;;;;;;;;;;;;;;22.25;29.83;97010.38;5053885;28;1950;-81
2021/11/02 14:50:55;;;;;;;;;;;;;;;22.23;29.88;97015.75;5055419;28;1012;-81
2021/11/02 14:53:34;;;;;;;;;;;;;;;22.26;29.84;97009.13;5054087;28;937;-82
2021/11/02 14:56:01;;;;;;;;;;;;;;;22.10;30.03;97015.06;5055500;28;913;-79
2021/11/02 14:58:38;;;;;;;;;;;;;;;22.26;29.88;97011.16;5013073;28;922;-82
2021/11/02 15:01:07;;;;;;;;;;;;;;;22.15;30.27;97010.84;5015698;28;977;-81
2021/11/02 15:03:33;;;;;;;;;;;;;;;22.27;29.77;97013.50;5013418;28;922;-82
2021/11/02 15:06:25;;;;;;;;;;;;;;;22.31;29.75;97013.38;5001325;28;864;-80
2021/11/02 15:08:52;;;;;;;;;;;;;;;22.11;30.22;97011.00;4993916;28;1891;-82
2021/11/02 15:11:17;;;;;;;;;;;;;;;22.30;29.88;97015.41;5018914;28;1117;-81
2021/11/02 15:13:47;;;;;;;;;;;;;;;22.39;29.72;97030.84;5013302;28;969;-81
2021/11/02 15:16:12;;;;;;;;;;;;;;;22.14;30.15;97035.56;4996130;28;988;-82
2021/11/02 15:18:39;;;;;;;;;;;;;;;22.04;30.20;97028.28;4993879;28;1020;-81
2021/11/02 15:21:04;;;;;;;;;;;;;;;22.12;30.00;97029.56;4980251;28;1018;-82
2021/11/02 15:23:37;;;;;;;;;;;;;;;22.41;29.82;97028.31;4993889;28;934;-82
2021/11/02 15:26:03;;;;;;;;;;;;;;;22.27;29.80;97018.41;4994944;28;963;-82
2021/11/02 15:28:28;;;;;;;;;;;;;;;22.16;29.99;97013.22;4988862;28;1962;-82
2021/11/02 15:31:03;;;;;;;;;;;;;;;22.41;29.49;97011.31;4996079;28;1772;-81
2021/11/02 15:33:32;;;;;;;;;;;;;;;22.51;30.68;97021.38;4993689;28;989;-81
2021/11/02 15:36:20;;;;;;;;;;;;;;;22.53;32.07;97030.19;4976593;29;1038;-80
2021/11/02 15:38:58;;;;;;;;;;;;;;;22.43;32.94;97020.13;4955468;29;919;-81
2021/11/02 15:41:24;;;;;;;;;;;;;;;22.42;33.84;97018.53;4918035;29;882;-82
2021/11/02 15:43:56;;;;;;;;;;;;;;;22.34;32.66;97018.88;4898136;29;1070;-81
2021/11/02 15:46:27;;;;;;;;;;;;;;;22.18;32.80;97022.03;4850475;29;951;-81
2021/11/02 15:48:53;;;;;;;;;;;;;;;22.50;31.73;97016.97;4862328;29;1915;-80
2021/11/02 15:51:19;;;;;;;;;;;;;;;22.26;32.06;97039.50;4862183;29;1011;-82
2021/11/02 15:53:45;;;;;;;;;;;;;;;22.26;31.84;97033.84;4898797;29;986;-78
2021/11/02 15:56:10;;;;;;;;;;;;;;;21.95;32.36;97045.28;4899828;29;862;-82
2021/11/02 15:58:35;;;;;;;;;;;;;;;22.31;31.73;97041.69;4903916;29;852;-81
2021/11/02 16:01:01;;;;;;;;;;;;;;;22.23;31.74;97048.97;4935237;29;1048;-80
2021/11/02 16:03:30;;;;;;;;;;;;;;;22.24;31.73;97054.16;4932731;29;910;-81
2021/11/02 16:05:56;;;;;;;;;;;;;;;22.24;31.76;97054.16;4918900;29;966;-81
2021/11/02 16:08:22;;;;;;;;;;;;;;;22.20;31.67;97053.50;4917142;29;1981;-82
2021/11/02 16:10:54;;;;;;;;;;;;;;;22.16;31.72;97041.53;4918644;29;1022;-80
2021/11/02 16:13:25;;;;;;;;;;;;;;;22.17;31.85;97040.28;4968847;28;897;-81
2021/11/02 16:15:50;;;;;;;;;;;;;;;22.27;31.35;97050.34;5009470;28;919;-81
2021/11/02 16:18:24;;;;;;;;;;;;;;;22.22;31.66;97039.66;5052254;28;1010;-81
2021/11/02 16:20:50;;;;;;;;;;;;;;;21.95;31.83;97050.94;5054077;28;1000;-80
2021/11/02 16:23:19;;;;;;;;;;;;;;;22.24;31.12;97047.69;5072726;28;1044;-81
2021/11/02 16:25:46;;;;;;;;;;;;;;;22.06;31.64;97052.06;5072683;28;1064;-79
2021/11/02 16:28:12;;;;;;;;;;;;;;;22.11;31.41;97045.00;5072185;28;1953;-81
2021/11/02 16:30:40;;;;;;;;;;;;;;;22.14;31.12;97046.91;5074157;28;888;-79
2021/11/02 16:33:06;;;;;;;;;;;;;;;22.08;31.24;97043.09;5072432;28;890;-82
2021/11/02 16:35:32;;;;;;;;;;;;;;;22.29;30.81;97039.34;5033101;28;910;-81
2021/11/02 16:37:57;;;;;;;;;;;;;;;22.05;31.32;97052.53;4995984;28;944;-81
2021/11/02 16:40:23;;;;;;;;;;;;;;;22.24;30.93;97054.16;4994133;28;990;-80
2021/11/02 16:43:01;;;;;;;;;;;;;;;22.12;31.05;97062.78;4976202;28;954;-82
2021/11/02 16:45:31;;;;;;;;;;;;;;;22.05;31.03;97041.97;4974655;29;881;-82
2021/11/02 16:47:57;;;;;;;;;;;;;;;21.99;30.87;97052.38;5013734;28;1887;-82
2021/11/02 16:50:30;;;;;;;;;;;;;;;22.10;30.98;97055.56;5032586;28;841;-81
2021/11/02 16:53:07;;;;;;;;;;;;;;;22.17;30.79;97060.09;5017196;28;924;-82
2021/11/02 16:55:35;;;;;;;;;;;;;;;22.35;30.47;97065.00;5014712;28;839;-81
2021/11/02 16:58:21;;;;;;;;;;;;;;;22.11;30.71;97062.00;5012661;28;881;-82
2021/11/02 17:00:47;;;;;;;;;;;;;;;22.00;30.92;97078.66;4974608;29;920;-79
2021/11/02 17:03:15;;;;;;;;;;;;;;;22.12;30.76;97079.78;4953751;29;1137;-81
2021/11/02 17:05:40;;;;;;;;;;;;;;;22.14;30.63;97089.41;4974867;29;946;-81
2021/11/02 17:08:09;;;;;;;;;;;;;;;21.85;31.66;97079.25;4973339;29;1887;-81
2021/11/02 17:10:38;;;;;;;;;;;;;;;22.47;31.50;97083.09;4936066;29;978;-80
2021/11/02 17:13:04;;;;;;;;;;;;;;;22.36;32.69;97084.38;4956531;29;939;-82
2021/11/02 17:15:34;;;;;;;;;;;;;;;22.46;33.12;97081.53;4974134;28;973;-79
2021/11/02 17:18:00;;;;;;;;;;;;;;;22.17;32.88;97082.78;4969165;29;871;-81
2021/11/02 17:20:26;;;;;;;;;;;;;;;22.22;32.35;97065.16;4935993;29;1050;-79
2021/11/02 17:22:52;;;;;;;;;;;;;;;22.30;31.80;97069.25;4936419;29;958;-81
2021/11/02 17:25:18;;;;;;;;;;;;;;;22.38;31.70;97074.59;4935723;29;895;-80
2021/11/02 17:27:45;;;;;;;;;;;;;;;22.19;31.69;97068.94;4955167;29;982;-81
2021/11/02 17:30:36;;;;;;;;;;;;;;;22.08;31.89;97079.94;4917758;29;1932;-82
2021/11/02 17:33:02;;;;;;;;;;;;;;;22.12;31.63;97080.56;4938271;29;1057;-82
2021/11/02 17:35:28;;;;;;;;;;;;;;;22.13;31.63;97078.56;4900720;29;967;-79
2021/11/02 17:37:54;;;;;;;;;;;;;;;22.16;31.40;97075.53;4864799;29;1003;-82
2021/11/02 17:40:20;;;;;;;;;;;;;;;22.25;31.39;97075.56;4872474;29;900;-81
2021/11/02 17:42:46;;;;;;;;;;;;;;;22.26;30.98;97074.28;4908754;29;1189;-81
2021/11/02 17:45:12;;;;;;;;;;;;;;;21.87;31.10;97022.16;4920307;29;1060;-82
2021/11/02 17:47:38;;;;;;;;;;;;;;;22.28;30.79;97066.13;4920911;29;897;-81
2021/11/02 17:50:04;;;;;;;;;;;;;;;22.24;30.98;97082.47;4919971;29;1923;-82
2021/11/02 17:52:30;;;;;;;;;;;;;;;21.95;31.47;97090.59;4921345;29;889;-81
2021/11/02 17:54:55;;;;;;;;;;;;;;;22.08;31.03;97094.09;4920223;29;806;-82
2021/11/02 17:57:21;;;;;;;;;;;;;;;22.14;31.03;97106.41;4915938;29;1054;-82
2021/11/02 17:59:47;;;;;;;;;;;;;;;21.87;31.31;97104.28;4883209;29;928;-81
2021/11/02 18:02:12;;;;;;;;;;;;;;;21.97;31.26;97099.44;4883339;29;1102;-81
2021/11/02 18:04:38;;;;;;;;;;;;;;;22.07;30.84;97101.81;4901412;29;1006;-81
2021/11/02 18:07:04;;;;;;;;;;;;;;;22.22;30.71;97101.97;4902529;29;994;-82
2021/11/02 18:09:31;;;;;;;;;;;;;;;22.06;30.87;97085.25;4933530;29;1967;-82
2021/11/02 18:11:56;;;;;;;;;;;;;;;22.34;31.29;97089.72;4978680;29;1001;-82
2021/11/02 18:14:22;;;;;;;;;;;;;;;22.48;32.35;97101.69;4995863;28;911;-82
2021/11/02 18:16:47;;;;;;;;;;;;;;;22.38;32.91;97114.28;4997379;28;917;-80
2021/11/02 18:19:13;;;;;;;;;;;;;;;22.48;33.55;97104.50;5002592;28;922;-82
2021/11/02 18:21:38;;;;;;;;;;;;;;;22.12;33.26;97108.91;5056494;28;877;-81
2021/11/02 18:24:04;;;;;;;;;;;;;;;22.15;32.64;97113.63;5038219;28;1024;-82